createdAt,value
2019-04-27T00:00:14.175Z,10.60
2019-04-27T00:02:48.706Z,10.60
2019-04-27T00:05:32.494Z,10.60
2019-04-27T00:08:15.585Z,10.60
2019-04-27T00:10:47.809Z,10.60
2019-04-27T00:13:18.173Z,10.60
2019-04-27T00:15:55.865Z,10.60
2019-04-27T00:18:30.389Z,10.60
2019-04-27T00:21:08.256Z,10.60
2019-04-27T00:23:39.415Z,10.60
2019-04-27T00:26:09.693Z,10.60
2019-04-27T00:28:39.982Z,10.50
2019-04-27T00:31:10.262Z,10.50
2019-04-27T00:33:40.636Z,10.40
2019-04-27T00:36:24.758Z,10.40
2019-04-27T00:38:59.708Z,10.30
2019-04-27T00:41:30.001Z,10.20
2019-04-27T00:44:01.437Z,10.20
2019-04-27T00:46:33.065Z,10.10
2019-04-27T00:49:03.746Z,10.10
2019-04-27T00:51:34.173Z,10.10
2019-04-27T00:54:04.743Z,10.10
2019-04-27T00:56:42.966Z,10.00
2019-04-27T00:59:20.592Z,10.00
2019-04-27T01:01:54.979Z,10.00
2019-04-27T01:04:29.466Z,10.00
2019-04-27T01:06:59.828Z,10.00
2019-04-27T01:09:30.126Z,10.00
2019-04-27T01:12:00.422Z,10.00
2019-04-27T01:14:31.039Z,10.00
2019-04-27T01:17:01.344Z,10.00
2019-04-27T01:19:32.522Z,9.90
2019-04-27T01:22:02.816Z,9.90
2019-04-27T01:24:33.113Z,9.90
2019-04-27T01:27:05.113Z,9.80
2019-04-27T01:29:37.024Z,9.80
2019-04-27T01:32:09.143Z,9.70
2019-04-27T01:34:39.681Z,9.70
2019-04-27T01:37:10.214Z,9.70
2019-04-27T01:39:40.492Z,9.80
2019-04-27T01:42:14.131Z,9.80
2019-04-27T01:44:43.718Z,9.80
2019-04-27T01:47:14.253Z,9.80
2019-04-27T01:49:44.473Z,9.80
2019-04-27T01:52:14.753Z,9.80
2019-04-27T01:54:45.070Z,9.90
2019-04-27T01:57:15.428Z,9.90
2019-04-27T01:59:45.710Z,9.80
2019-04-27T02:02:32.450Z,9.80
2019-04-27T02:05:20.690Z,9.80
2019-04-27T02:07:51.053Z,9.80
2019-04-27T02:10:21.812Z,9.80
2019-04-27T02:12:52.090Z,9.80
2019-04-27T02:15:22.407Z,9.80
2019-04-27T02:17:53.853Z,9.80
2019-04-27T02:20:25.263Z,9.70
2019-04-27T02:22:55.545Z,9.70
2019-04-27T02:25:26.113Z,9.70
2019-04-27T02:27:59.294Z,9.70
2019-04-27T02:30:31.428Z,9.70
2019-04-27T02:33:21.603Z,9.70
2019-04-27T02:35:51.875Z,9.70
2019-04-27T02:38:22.151Z,9.70
2019-04-27T02:40:55.548Z,9.70
2019-04-27T02:43:29.596Z,9.70
2019-04-27T02:46:00.493Z,9.60
2019-04-27T02:48:30.817Z,9.60
2019-04-27T02:51:02.745Z,9.60
2019-04-27T02:53:51.109Z,9.60
2019-04-27T02:56:21.388Z,9.50
2019-04-27T02:58:51.749Z,9.50
2019-04-27T03:01:24.205Z,9.40
2019-04-27T03:03:54.573Z,9.30
2019-04-27T03:06:25.169Z,9.30
2019-04-27T03:08:55.457Z,9.20
2019-04-27T03:11:27.083Z,9.20
2019-04-27T03:14:29.703Z,9.20
2019-04-27T03:16:50.847Z,9.20
2019-04-27T03:19:40.040Z,9.20
2019-04-27T03:22:14.893Z,9.20
2019-04-27T03:25:01.607Z,9.20
2019-04-27T03:27:40.601Z,9.10
2019-04-27T03:30:15.627Z,9.10
2019-04-27T03:32:46.042Z,9.10
2019-04-27T03:35:16.291Z,9.00
2019-04-27T03:37:46.575Z,9.00
2019-04-27T03:40:16.991Z,8.90
2019-04-27T03:42:50.124Z,8.90
2019-04-27T03:45:20.518Z,8.90
2019-04-27T03:47:51.149Z,8.90
2019-04-27T03:50:23.316Z,8.80
2019-04-27T03:53:01.289Z,8.70
2019-04-27T03:55:42.753Z,8.70
2019-04-27T03:58:31.194Z,8.60
2019-04-27T04:01:01.479Z,8.60
2019-04-27T04:03:32.108Z,8.60
2019-04-27T04:06:02.554Z,8.60
2019-04-27T04:08:32.911Z,8.60
2019-04-27T04:11:04.847Z,8.50
2019-04-27T04:13:36.766Z,8.40
2019-04-27T04:16:20.481Z,8.40
2019-04-27T04:19:00.815Z,8.30
2019-04-27T04:21:30.345Z,8.30
2019-04-27T04:24:01.479Z,8.20
2019-04-27T04:26:32.931Z,8.20
2019-04-27T04:29:03.628Z,8.20
2019-04-27T04:31:33.910Z,8.20
2019-04-27T04:34:04.336Z,8.20
2019-04-27T04:36:34.611Z,8.20
2019-04-27T04:39:11.951Z,8.20
2019-04-27T04:41:43.623Z,8.20
2019-04-27T04:44:33.224Z,8.20
2019-04-27T04:47:11.471Z,8.20
2019-04-27T04:49:41.752Z,8.20
2019-04-27T04:52:12.032Z,8.20
2019-04-27T04:54:42.315Z,8.30
2019-04-27T04:57:13.484Z,8.20
2019-04-27T04:59:43.980Z,8.10
2019-04-27T05:02:14.771Z,8.10
2019-04-27T05:04:45.055Z,8.10
2019-04-27T05:07:15.324Z,8.10
2019-04-27T05:09:45.621Z,8.00
2019-04-27T05:12:15.902Z,8.00
2019-04-27T05:14:46.501Z,8.10
2019-04-27T05:17:17.024Z,8.10
2019-04-27T05:19:49.115Z,8.10
2019-04-27T05:22:19.649Z,8.10
2019-04-27T05:24:51.725Z,8.10
2019-04-27T05:27:22.000Z,8.10
2019-04-27T05:29:53.145Z,8.20
2019-04-27T05:32:23.434Z,8.20
2019-04-27T05:34:53.727Z,8.30
2019-04-27T05:37:28.096Z,8.40
2019-04-27T05:39:55.978Z,8.40
2019-04-27T05:42:26.261Z,8.50
2019-04-27T05:45:06.472Z,8.50
2019-04-27T05:47:50.201Z,8.60
2019-04-27T05:50:20.095Z,8.70
2019-04-27T05:52:49.643Z,8.70
2019-04-27T05:55:20.119Z,8.80
2019-04-27T05:57:50.393Z,8.90
2019-04-27T06:00:21.855Z,8.90
2019-04-27T06:02:52.130Z,9.00
2019-04-27T06:05:23.039Z,9.10
2019-04-27T06:07:53.442Z,9.10
2019-04-27T06:10:23.729Z,9.20
2019-04-27T06:12:54.010Z,9.30
2019-04-27T06:15:24.286Z,9.40
2019-04-27T06:17:54.563Z,9.50
2019-04-27T06:20:25.696Z,9.60
2019-04-27T06:22:56.214Z,9.70
2019-04-27T06:25:26.512Z,9.70
2019-04-27T06:27:56.792Z,9.80
2019-04-27T06:30:29.086Z,9.80
2019-04-27T06:32:59.520Z,9.90
2019-04-27T06:35:29.927Z,10.00
2019-04-27T06:38:00.218Z,10.20
2019-04-27T06:40:30.500Z,10.20
2019-04-27T06:43:00.793Z,10.20
2019-04-27T06:45:31.077Z,10.30
2019-04-27T06:48:01.363Z,10.40
2019-04-27T06:50:31.640Z,10.50
2019-04-27T06:53:02.224Z,10.60
2019-04-27T06:55:33.037Z,10.80
2019-04-27T06:58:03.319Z,10.90
2019-04-27T07:00:33.656Z,11.10
2019-04-27T07:03:03.950Z,11.20
2019-04-27T07:05:34.742Z,11.20
2019-04-27T07:08:05.014Z,11.10
2019-04-27T07:10:35.292Z,11.20
2019-04-27T07:13:05.641Z,11.30
2019-04-27T07:15:36.191Z,11.30
2019-04-27T07:18:06.472Z,11.30
2019-04-27T07:20:38.758Z,11.30
2019-04-27T07:23:09.562Z,11.40
2019-04-27T07:25:39.954Z,11.40
2019-04-27T07:28:10.224Z,11.50
2019-04-27T07:30:40.510Z,11.60
2019-04-27T07:33:10.783Z,11.60
2019-04-27T07:35:41.070Z,11.70
2019-04-27T07:38:11.341Z,11.80
2019-04-27T07:40:42.089Z,11.80
2019-04-27T07:43:16.826Z,11.70
2019-04-27T07:45:47.096Z,11.70
2019-04-27T07:48:18.883Z,11.70
2019-04-27T07:50:49.522Z,11.70
2019-04-27T07:53:19.806Z,11.70
2019-04-27T07:55:50.092Z,11.60
2019-04-27T07:58:22.202Z,11.60
2019-04-27T08:00:53.412Z,11.50
2019-04-27T08:03:23.696Z,11.50
2019-04-27T08:05:54.235Z,11.40
2019-04-27T08:08:24.524Z,11.40
2019-04-27T08:10:55.086Z,11.30
2019-04-27T08:13:25.369Z,11.20
2019-04-27T08:15:55.946Z,11.10
2019-04-27T08:18:26.246Z,11.10
2019-04-27T08:20:57.019Z,11.20
2019-04-27T08:23:29.378Z,11.10
2019-04-27T08:25:59.758Z,11.10
2019-04-27T08:28:31.686Z,11.10
2019-04-27T08:31:12.662Z,11.10
2019-04-27T08:33:43.521Z,11.00
2019-04-27T08:36:13.797Z,11.00
2019-04-27T08:38:44.076Z,11.00
2019-04-27T08:41:14.356Z,10.90
2019-04-27T08:43:48.779Z,10.90
2019-04-27T08:46:16.616Z,10.90
2019-04-27T08:48:46.889Z,10.80
2019-04-27T08:51:17.172Z,10.90
2019-04-27T08:53:47.441Z,10.90
2019-04-27T08:56:19.311Z,11.00
2019-04-27T08:58:49.823Z,11.00
2019-04-27T09:01:20.824Z,11.00
2019-04-27T09:03:51.169Z,10.90
2019-04-27T09:06:21.450Z,10.90
2019-04-27T09:09:09.617Z,10.90
2019-04-27T09:11:44.356Z,10.80
2019-04-27T09:14:16.298Z,10.80
2019-04-27T09:17:03.876Z,10.80
2019-04-27T09:19:52.021Z,10.80
2019-04-27T09:22:22.295Z,10.80
2019-04-27T09:24:52.582Z,10.90
2019-04-27T09:27:22.857Z,10.90
2019-04-27T09:29:53.394Z,10.90
2019-04-27T09:32:23.672Z,11.00
2019-04-27T09:34:54.025Z,11.00
2019-04-27T09:37:24.305Z,11.10
2019-04-27T09:40:17.146Z,11.00
2019-04-27T09:42:47.533Z,11.10
2019-04-27T09:45:18.656Z,11.20
2019-04-27T09:47:48.933Z,11.50
2019-04-27T09:50:20.157Z,11.70
2019-04-27T09:52:50.432Z,12.00
2019-04-27T09:55:20.725Z,12.20
2019-04-27T09:57:51.078Z,12.20
2019-04-27T10:00:21.969Z,12.40
2019-04-27T10:02:52.447Z,12.50
2019-04-27T10:05:22.703Z,12.40
2019-04-27T10:07:52.991Z,12.40
2019-04-27T10:10:23.736Z,12.40
2019-04-27T10:12:54.343Z,12.30
2019-04-27T10:15:26.472Z,12.30
2019-04-27T10:17:57.685Z,12.30
2019-04-27T10:20:28.233Z,12.20
2019-04-27T10:22:58.515Z,12.20
2019-04-27T10:25:29.826Z,12.20
2019-04-27T10:28:00.028Z,12.20
2019-04-27T10:30:31.147Z,12.10
2019-04-27T10:33:01.435Z,12.10
2019-04-27T10:35:31.990Z,12.10
2019-04-27T10:38:02.281Z,12.00
2019-04-27T10:40:32.563Z,12.00
2019-04-27T10:43:02.841Z,12.00
2019-04-27T10:45:33.136Z,11.90
2019-04-27T10:48:03.660Z,11.90
2019-04-27T10:50:36.430Z,11.90
2019-04-27T10:53:07.130Z,11.80
2019-04-27T10:55:37.451Z,11.90
2019-04-27T10:58:07.797Z,11.70
2019-04-27T11:00:48.981Z,11.70
2019-04-27T11:03:20.906Z,11.70
2019-04-27T11:06:05.907Z,11.70
2019-04-27T11:08:36.323Z,11.70
2019-04-27T11:11:06.633Z,11.60
2019-04-27T11:13:38.329Z,11.60
2019-04-27T11:16:08.881Z,11.60
2019-04-27T11:18:39.163Z,11.60
2019-04-27T11:21:09.446Z,11.40
2019-04-27T11:23:39.736Z,11.30
2019-04-27T11:26:13.297Z,11.30
2019-04-27T11:28:43.642Z,11.30
2019-04-27T11:31:16.949Z,11.30
2019-04-27T11:33:46.520Z,11.30
2019-04-27T11:36:25.571Z,11.30
2019-04-27T11:38:57.673Z,11.40
2019-04-27T11:41:27.949Z,11.50
2019-04-27T11:43:58.520Z,11.60
2019-04-27T11:46:28.875Z,11.60
2019-04-27T11:48:59.153Z,11.60
2019-04-27T11:51:29.442Z,11.50
2019-04-27T11:54:00.018Z,11.60
2019-04-27T11:56:30.552Z,11.50
2019-04-27T11:59:00.852Z,11.50
2019-04-27T12:01:31.135Z,11.50
2019-04-27T12:04:01.409Z,11.50
2019-04-27T12:06:31.695Z,11.40
2019-04-27T12:09:01.967Z,11.40
2019-04-27T12:11:32.429Z,11.30
2019-04-27T12:14:02.782Z,11.30
2019-04-27T12:16:33.079Z,11.30
2019-04-27T12:19:03.520Z,11.40
2019-04-27T12:21:33.801Z,11.50
2019-04-27T12:24:04.467Z,11.60
2019-04-27T12:26:36.709Z,11.70
2019-04-27T12:29:08.704Z,11.90
2019-04-27T12:31:43.155Z,12.20
2019-04-27T12:34:12.183Z,12.20
2019-04-27T12:36:42.332Z,12.20
2019-04-27T12:39:15.523Z,12.20
2019-04-27T12:41:46.177Z,12.20
2019-04-27T12:44:16.570Z,12.10
2019-04-27T12:46:46.859Z,12.10
2019-04-27T12:49:17.230Z,12.00
2019-04-27T12:51:49.227Z,12.00
2019-04-27T12:54:21.220Z,12.10
2019-04-27T12:57:06.029Z,12.10
2019-04-27T12:59:44.374Z,12.20
2019-04-27T13:02:16.862Z,12.20
2019-04-27T13:04:48.279Z,12.10
2019-04-27T13:07:20.947Z,12.10
2019-04-27T13:09:51.227Z,12.00
2019-04-27T13:12:21.843Z,12.00
2019-04-27T13:14:52.355Z,12.00
2019-04-27T13:17:22.636Z,11.90
2019-04-27T13:19:56.184Z,11.80
2019-04-27T13:22:26.459Z,11.80
2019-04-27T13:24:57.101Z,11.70
2019-04-27T13:27:27.391Z,11.60
2019-04-27T13:29:57.661Z,11.20
2019-04-27T13:32:28.246Z,10.50
2019-04-27T13:34:58.513Z,10.20
2019-04-27T13:37:39.471Z,9.70
2019-04-27T13:40:13.194Z,9.30
2019-04-27T13:43:00.216Z,9.10
2019-04-27T13:45:41.457Z,9.00
2019-04-27T13:48:29.591Z,8.90
2019-04-27T13:51:01.489Z,8.80
2019-04-27T13:53:31.774Z,8.80
2019-04-27T13:56:03.747Z,8.70
2019-04-27T13:58:35.135Z,8.60
2019-04-27T14:01:05.540Z,8.70
2019-04-27T14:03:35.828Z,8.60
2019-04-27T14:06:06.092Z,8.60
2019-04-27T14:08:38.196Z,8.70
2019-04-27T14:11:09.543Z,8.80
2019-04-27T14:13:39.857Z,8.70
2019-04-27T14:16:10.142Z,8.80
2019-04-27T14:18:40.417Z,8.80
2019-04-27T14:21:10.687Z,8.80
2019-04-27T14:23:40.943Z,8.80
2019-04-27T14:26:11.517Z,8.90
2019-04-27T14:28:41.801Z,8.90
2019-04-27T14:31:12.072Z,8.90
2019-04-27T14:33:42.343Z,8.90
2019-04-27T14:36:12.919Z,8.90
2019-04-27T14:38:43.191Z,9.00
2019-04-27T14:41:14.004Z,9.00
2019-04-27T14:43:44.931Z,9.10
2019-04-27T14:46:15.214Z,9.20
2019-04-27T14:48:45.489Z,9.40
2019-04-27T14:51:15.755Z,9.60
2019-04-27T14:53:46.032Z,9.90
2019-04-27T14:56:18.104Z,10.20
2019-04-27T14:58:49.528Z,10.50
2019-04-27T15:01:20.568Z,10.70
2019-04-27T15:03:50.910Z,10.80
2019-04-27T15:06:22.093Z,11.10
2019-04-27T15:08:52.384Z,11.40
2019-04-27T15:11:23.954Z,11.60
2019-04-27T15:13:56.862Z,11.80
2019-04-27T15:16:26.391Z,12.00
2019-04-27T15:19:02.436Z,12.10
2019-04-27T15:21:38.362Z,12.00
2019-04-27T15:24:10.052Z,11.90
2019-04-27T15:26:36.877Z,11.90
2019-04-27T15:29:08.836Z,11.80
2019-04-27T15:31:40.961Z,11.90
2019-04-27T15:34:14.479Z,11.90
2019-04-27T15:37:01.489Z,11.90
2019-04-27T15:39:45.113Z,12.00
2019-04-27T15:42:32.230Z,12.10
2019-04-27T15:45:02.498Z,12.20
2019-04-27T15:47:33.689Z,12.20
2019-04-27T15:50:07.963Z,12.10
2019-04-27T15:52:38.439Z,12.10
2019-04-27T15:55:31.095Z,12.10
2019-04-27T15:57:42.482Z,12.00
2019-04-27T16:00:18.712Z,11.90
2019-04-27T16:02:49.344Z,11.80
2019-04-27T16:05:19.172Z,11.80
2019-04-27T16:07:49.465Z,11.70
2019-04-27T16:10:20.280Z,11.70
2019-04-27T16:13:06.025Z,11.70
2019-04-27T16:15:22.536Z,11.60
2019-04-27T16:17:55.899Z,11.60
2019-04-27T16:20:30.094Z,11.50
2019-04-27T16:23:02.864Z,11.50
2019-04-27T16:25:31.543Z,11.40
2019-04-27T16:28:04.530Z,11.40
2019-04-27T16:30:32.930Z,11.30
2019-04-27T16:33:03.293Z,11.20
2019-04-27T16:35:33.557Z,11.20
2019-04-27T16:38:09.592Z,11.10
2019-04-27T16:40:39.944Z,10.90
2019-04-27T16:43:10.523Z,10.90
2019-04-27T16:45:41.060Z,10.70
2019-04-27T16:48:11.332Z,10.50
2019-04-27T16:50:41.786Z,10.40
2019-04-27T16:53:12.592Z,10.20
2019-04-27T16:55:42.994Z,10.10
2019-04-27T16:58:16.031Z,10.00
2019-04-27T17:00:45.942Z,10.00
2019-04-27T17:03:18.047Z,10.00
2019-04-27T17:05:48.640Z,10.00
2019-04-27T17:08:22.448Z,10.10
2019-04-27T17:10:50.838Z,10.10
2019-04-27T17:13:21.895Z,10.10
2019-04-27T17:15:58.768Z,10.10
2019-04-27T17:18:30.976Z,10.00
2019-04-27T17:21:15.776Z,10.00
2019-04-27T17:23:34.003Z,10.00
2019-04-27T17:26:14.202Z,10.00
2019-04-27T17:28:50.841Z,10.00
2019-04-27T17:31:22.987Z,10.00
2019-04-27T17:33:58.661Z,10.00
2019-04-27T17:36:29.703Z,9.80
2019-04-27T17:38:59.970Z,9.70
2019-04-27T17:41:30.276Z,9.60
2019-04-27T17:44:00.547Z,9.50
2019-04-27T17:46:30.834Z,9.50
2019-04-27T17:49:01.102Z,9.40
2019-04-27T17:51:35.267Z,9.40
2019-04-27T17:54:07.981Z,9.30
2019-04-27T17:56:36.358Z,9.30
2019-04-27T17:59:10.450Z,9.20
2019-04-27T18:01:39.857Z,9.20
2019-04-27T18:04:10.666Z,9.10
2019-04-27T18:06:42.636Z,9.00
2019-04-27T18:09:15.373Z,8.90
2019-04-27T18:11:45.767Z,8.90
2019-04-27T18:14:16.048Z,8.90
2019-04-27T18:16:48.182Z,8.90
2019-04-27T18:19:23.184Z,8.90
2019-04-27T18:22:01.008Z,8.90
2019-04-27T18:24:33.220Z,8.90
2019-04-27T18:27:14.133Z,8.90
2019-04-27T18:29:44.400Z,8.80
2019-04-27T18:32:14.674Z,8.80
2019-04-27T18:34:45.216Z,8.80
2019-04-27T18:37:21.326Z,8.80
2019-04-27T18:39:53.389Z,8.90
2019-04-27T18:42:23.237Z,9.00
2019-04-27T18:44:53.143Z,9.10
2019-04-27T18:47:23.426Z,9.30
2019-04-27T18:49:55.340Z,9.30
2019-04-27T18:52:49.520Z,9.20
2019-04-27T18:55:20.561Z,9.20
2019-04-27T18:57:51.128Z,9.10
2019-04-27T19:00:22.605Z,9.10
2019-04-27T19:02:52.877Z,9.20
2019-04-27T19:05:23.143Z,9.10
2019-04-27T19:07:53.711Z,9.10
2019-04-27T19:10:24.162Z,9.10
2019-04-27T19:12:54.487Z,9.10
2019-04-27T19:15:24.835Z,9.10
2019-04-27T19:17:55.109Z,9.10
2019-04-27T19:20:25.382Z,9.10
2019-04-27T19:22:55.662Z,9.10
2019-04-27T19:25:36.616Z,9.10
2019-04-27T19:28:25.039Z,9.00
2019-04-27T19:31:12.069Z,9.00
2019-04-27T19:33:42.334Z,8.90
2019-04-27T19:36:12.613Z,8.90
2019-04-27T19:38:42.880Z,8.80
2019-04-27T19:41:13.146Z,8.70
2019-04-27T19:43:43.422Z,8.70
2019-04-27T19:46:13.692Z,8.70
2019-04-27T19:48:43.961Z,8.70
2019-04-27T19:51:14.225Z,8.70
2019-04-27T19:53:44.483Z,8.70
2019-04-27T19:56:14.818Z,8.70
2019-04-27T19:58:49.609Z,8.70
2019-04-27T20:01:28.079Z,8.70
2019-04-27T20:04:02.983Z,9.10
2019-04-27T20:06:33.284Z,9.10
2019-04-27T20:09:24.601Z,9.20
2019-04-27T20:11:54.874Z,9.10
2019-04-27T20:14:25.223Z,9.00
2019-04-27T20:16:55.489Z,9.00
2019-04-27T20:19:25.764Z,8.90
2019-04-27T20:21:56.046Z,8.80
2019-04-27T20:24:26.309Z,8.80
2019-04-27T20:26:56.824Z,8.70
2019-04-27T20:29:27.117Z,8.70
2019-04-27T20:31:57.373Z,8.60
2019-04-27T20:34:27.646Z,8.60
2019-04-27T20:36:57.927Z,8.50
2019-04-27T20:39:28.181Z,8.50
2019-04-27T20:41:58.444Z,8.50
2019-04-27T20:44:28.709Z,8.50
2019-04-27T20:46:58.968Z,8.50
2019-04-27T20:49:29.241Z,8.60
2019-04-27T20:52:01.400Z,8.60
2019-04-27T20:54:32.676Z,8.60
2019-04-27T20:57:03.007Z,8.50
2019-04-27T20:59:33.273Z,8.60
2019-04-27T21:02:22.308Z,8.60
2019-04-27T21:04:54.951Z,8.60
2019-04-27T21:07:38.725Z,8.60
2019-04-27T21:10:09.211Z,8.50
2019-04-27T21:12:39.466Z,8.50
2019-04-27T21:15:12.706Z,8.50
2019-04-27T21:17:42.601Z,8.50
2019-04-27T21:20:13.365Z,8.50
2019-04-27T21:22:43.605Z,8.50
2019-04-27T21:25:13.943Z,8.60
2019-04-27T21:27:44.215Z,8.60
2019-04-27T21:30:15.185Z,8.60
2019-04-27T21:32:45.485Z,8.60
2019-04-27T21:35:15.843Z,8.60
2019-04-27T21:37:46.112Z,8.60
2019-04-27T21:40:18.458Z,8.60
2019-04-27T21:42:51.272Z,8.60
2019-04-27T21:45:22.361Z,8.60
2019-04-27T21:47:52.604Z,8.60
2019-04-27T21:50:23.417Z,8.60
2019-04-27T21:52:55.291Z,8.60
2019-04-27T21:55:27.203Z,8.60
2019-04-27T21:57:57.785Z,8.50
2019-04-27T22:00:39.136Z,8.50
2019-04-27T22:03:11.433Z,8.40
2019-04-27T22:05:42.078Z,8.40
2019-04-27T22:08:12.432Z,8.40
2019-04-27T22:10:43.878Z,8.40
2019-04-27T22:13:14.140Z,8.40
2019-04-27T22:15:44.413Z,8.30
2019-04-27T22:18:14.679Z,8.40
2019-04-27T22:20:44.942Z,8.40
2019-04-27T22:23:22.906Z,8.40
2019-04-27T22:25:54.444Z,8.40
2019-04-27T22:28:24.071Z,8.40
2019-04-27T22:30:54.338Z,8.40
2019-04-27T22:33:24.611Z,8.40
2019-04-27T22:38:15.483Z,8.40
2019-04-27T22:40:53.358Z,8.40
2019-04-27T22:43:41.610Z,8.40
2019-04-27T22:46:19.042Z,8.40
2019-04-27T22:48:49.369Z,8.40
2019-04-27T22:51:19.643Z,8.30
2019-04-27T22:53:51.248Z,8.30
2019-04-27T22:56:22.305Z,8.30
2019-04-27T22:59:03.634Z,8.30
2019-04-27T23:01:40.715Z,8.30
2019-04-27T23:04:14.103Z,8.30
2019-04-27T23:06:44.377Z,8.30
2019-04-27T23:09:15.054Z,8.30
2019-04-27T23:11:45.329Z,8.30
2019-04-27T23:14:15.906Z,8.20
2019-04-27T23:16:50.528Z,8.20
2019-04-27T23:19:21.061Z,8.20
2019-04-27T23:21:53.180Z,8.20
2019-04-27T23:24:23.273Z,8.20
2019-04-27T23:26:53.540Z,8.20
2019-04-27T23:29:23.798Z,8.20
2019-04-27T23:32:01.844Z,8.10
2019-04-27T23:34:32.119Z,8.10
2019-04-27T23:37:02.387Z,8.10
2019-04-27T23:39:32.658Z,8.00
2019-04-27T23:42:06.746Z,8.00
2019-04-27T23:44:36.078Z,8.00
2019-04-27T23:47:07.740Z,8.00
2019-04-27T23:49:38.007Z,8.00
2019-04-27T23:52:09.916Z,8.00
2019-04-27T23:54:42.736Z,7.90
2019-04-27T23:57:12.220Z,7.90
2019-04-27T23:59:42.486Z,7.90
